Wallington, NJ (07057)

5:59 AM EDT on April 21, 2015 (GMT -0400)
Wallington Weather Station Gaweda | | Change Station
CLOSE
Current Station
Personal Weather Station
Location: Wallington, NJ
Elevation: 23 ft
Nearby Weather Stations

Elev 23 ft 40.85 °N, 74.11 °W | Updated 0 second ago

Light Rain
Light Rain Mist
54.1 °F
Feels Like 54.1 °F
N
0.0
Wind Variable Wind from SSE
Gusts 1.0 mph

Today
High -- | Low -- °F
--% Chance of Precip.
Yesterday
High -- | Low -- °F
Precip. -- in
6:08 AM 7:42 PM
Waxing Crescent, 9% visible
Pressure 29.57 in
Visibility 2.0 miles
Clouds Scattered Clouds 8000 ft
Overcast 10000 ft
Dew Point 54 °F
Humidity 99%
Rainfall 0.17 in
Snow Depth Not available.
UV 0 out of 12
Pollen .40 out of 12
Air Quality Not available.
Flu Activity Regional
METAR KTEB 210951Z 22004KT 2SM -RA BR SCT080 OVC100 13/12 A2956 RMK AO2 SFC VIS 6 SLP011 P0000 T01280117

More Conditions Fewer Conditions

Pressure 29.57 in
Visibility 2.0 miles
Clouds Scattered Clouds 8000 ft
Overcast 10000 ft
Dew Point 54 °F
Humidity 99%
Rainfall 0.17 in
Snow Depth Not available.
UV 0 out of 12
Pollen .40 out of 12
Air Quality Not available.
Flu Activity Regional
METAR KTEB 210951Z 22004KT 2SM -RA BR SCT080 OVC100 13/12 A2956 RMK AO2 SFC VIS 6 SLP011 P0000 T01280117

More Conditions Fewer Conditions

10-Day Weather Forecast

Almanac

Astronomy

Apr. 21, 2015 Rise Set
Actual Time
Civil Twilight
Nautical Twilight
Astronomical Twilight
Moon
Length of Visible Light
Length of Day
Tomorrow will be .
, % of the Moon is Illuminated

Today's Extremes

State Highs State Lows

Community

WunderPhotos

Upload Photos

1,815,331 photos uploaded!

WunderBlogs® & News

Nearby

Air Quality

  Air Quality AQ Index Pollutant
Not available.

Snow Depth

Station Depth Elevation

Earthquake Activity

City Distance Mag. Time & Date
Minimum magnitude displayed is 2.5.

Coastal Water Temperatures

Place Temperature

Stations

Nearby Weather Stations

Station Location Temp. Windchill Dew Point Humidity Wind Precip. Elev Updated Type